Terminal Aerodrome Forecast
Issued by NWS

Current Version | Previous Version | Text Only | Print | Product List | Glossary On
Versions: 1 2 3 4 5 6 7 8 9 10 11 12 13 14 15
000
FTUS43 KOAX 021142
TAFBFF
TAF
KBFF 021142Z 0212/0312 13011KT P6SM SCT050 BKN100
     FM022100 15012KT P6SM BKN050 OVC100
     FM030400 02015KT 3SM -SN BR SCT007 BKN015 OVC025
     FM030700 35020G28KT 1SM -SN BLSN BKN004 OVC010=

USA.gov is the U.S. government's official web portal to all federal, state and local government web resources and services.